sensor_id;sensor_type;location;lat;lon;timestamp;temperature;humidity
52869;DHT22;39100;53.480;6.158;2023-05-14T00:01:11;11.70;99.90
52869;DHT22;39100;53.480;6.158;2023-05-14T00:03:37;11.60;99.90
52869;DHT22;39100;53.480;6.158;2023-05-14T00:06:05;11.60;99.90
52869;DHT22;39100;53.480;6.158;2023-05-14T00:08:31;11.70;99.90
52869;DHT22;39100;53.480;6.158;2023-05-14T00:10:56;11.70;99.90
52869;DHT22;39100;53.480;6.158;2023-05-14T00:13:22;11.70;99.90
52869;DHT22;39100;53.480;6.158;2023-05-14T00:15:47;11.70;99.90
52869;DHT22;39100;53.480;6.158;2023-05-14T00:18:13;11.70;99.90
52869;DHT22;39100;53.480;6.158;2023-05-14T00:20:39;11.60;99.90
52869;DHT22;39100;53.480;6.158;2023-05-14T00:23:05;11.70;99.90
52869;DHT22;39100;53.480;6.158;2023-05-14T00:25:30;11.60;99.90
52869;DHT22;39100;53.480;6.158;2023-05-14T00:27:56;11.60;99.90
52869;DHT22;39100;53.480;6.158;2023-05-14T00:30:22;11.60;99.90
52869;DHT22;39100;53.480;6.158;2023-05-14T00:32:47;11.60;99.90
52869;DHT22;39100;53.480;6.158;2023-05-14T00:35:13;11.60;99.90
52869;DHT22;39100;53.480;6.158;2023-05-14T00:37:38;11.60;99.90
52869;DHT22;39100;53.480;6.158;2023-05-14T00:40:04;11.60;99.90
52869;DHT22;39100;53.480;6.158;2023-05-14T00:42:31;11.60;99.90
52869;DHT22;39100;53.480;6.158;2023-05-14T00:44:56;11.60;99.90
52869;DHT22;39100;53.480;6.158;2023-05-14T00:47:22;11.60;99.90
52869;DHT22;39100;53.480;6.158;2023-05-14T00:49:48;11.60;99.90
52869;DHT22;39100;53.480;6.158;2023-05-14T00:52:14;11.60;99.90
52869;DHT22;39100;53.480;6.158;2023-05-14T00:54:41;11.60;99.90
52869;DHT22;39100;53.480;6.158;2023-05-14T00:57:07;11.60;99.90
52869;DHT22;39100;53.480;6.158;2023-05-14T00:59:33;11.60;99.90
52869;DHT22;39100;53.480;6.158;2023-05-14T01:01:58;11.50;99.90
52869;DHT22;39100;53.480;6.158;2023-05-14T01:04:24;11.50;99.90
52869;DHT22;39100;53.480;6.158;2023-05-14T01:07:20;11.50;99.90
52869;DHT22;39100;53.480;6.158;2023-05-14T01:10:05;11.50;99.90
52869;DHT22;39100;53.480;6.158;2023-05-14T01:12:37;11.50;99.90
52869;DHT22;39100;53.480;6.158;2023-05-14T01:15:22;11.50;99.90
52869;DHT22;39100;53.480;6.158;2023-05-14T01:18:09;11.50;99.90
52869;DHT22;39100;53.480;6.158;2023-05-14T01:20:35;11.50;99.90
52869;DHT22;39100;53.480;6.158;2023-05-14T01:23:01;11.40;99.90
52869;DHT22;39100;53.480;6.158;2023-05-14T01:25:29;11.40;99.90
52869;DHT22;39100;53.480;6.158;2023-05-14T01:28:17;11.40;99.90
52869;DHT22;39100;53.480;6.158;2023-05-14T01:31:08;11.40;99.90
52869;DHT22;39100;53.480;6.158;2023-05-14T01:33:35;11.40;99.90
52869;DHT22;39100;53.480;6.158;2023-05-14T01:36:01;11.40;99.90
52869;DHT22;39100;53.480;6.158;2023-05-14T01:38:28;11.40;99.90
52869;DHT22;39100;53.480;6.158;2023-05-14T01:40:56;11.40;99.90
52869;DHT22;39100;53.480;6.158;2023-05-14T01:43:22;11.40;99.90
52869;DHT22;39100;53.480;6.158;2023-05-14T01:45:48;11.40;99.90
52869;DHT22;39100;53.480;6.158;2023-05-14T01:48:15;11.40;99.90
52869;DHT22;39100;53.480;6.158;2023-05-14T01:50:40;11.40;99.90
52869;DHT22;39100;53.480;6.158;2023-05-14T01:53:06;11.40;99.90
52869;DHT22;39100;53.480;6.158;2023-05-14T01:55:32;11.50;99.90
52869;DHT22;39100;53.480;6.158;2023-05-14T01:57:57;11.50;99.90
52869;DHT22;39100;53.480;6.158;2023-05-14T02:00:23;11.40;99.90
52869;DHT22;39100;53.480;6.158;2023-05-14T02:02:50;11.40;99.90
52869;DHT22;39100;53.480;6.158;2023-05-14T02:05:15;11.50;99.90
52869;DHT22;39100;53.480;6.158;2023-05-14T02:07:41;11.40;99.90
52869;DHT22;39100;53.480;6.158;2023-05-14T02:10:07;11.40;99.90
52869;DHT22;39100;53.480;6.158;2023-05-14T02:12:33;11.40;99.90
52869;DHT22;39100;53.480;6.158;2023-05-14T02:14:58;11.40;99.90
52869;DHT22;39100;53.480;6.158;2023-05-14T02:17:25;11.40;99.90
52869;DHT22;39100;53.480;6.158;2023-05-14T02:19:51;11.40;99.90
52869;DHT22;39100;53.480;6.158;2023-05-14T02:22:17;11.40;99.90
52869;DHT22;39100;53.480;6.158;2023-05-14T02:24:42;11.50;99.90
52869;DHT22;39100;53.480;6.158;2023-05-14T02:27:08;11.40;99.90
52869;DHT22;39100;53.480;6.158;2023-05-14T02:29:33;11.40;99.90
52869;DHT22;39100;53.480;6.158;2023-05-14T02:31:59;11.40;99.90
52869;DHT22;39100;53.480;6.158;2023-05-14T02:34:24;11.50;99.90
52869;DHT22;39100;53.480;6.158;2023-05-14T02:36:50;11.50;99.90
52869;DHT22;39100;53.480;6.158;2023-05-14T02:39:15;11.50;99.90
52869;DHT22;39100;53.480;6.158;2023-05-14T02:41:41;11.40;99.90
52869;DHT22;39100;53.480;6.158;2023-05-14T02:44:07;11.50;99.90
52869;DHT22;39100;53.480;6.158;2023-05-14T02:46:32;11.50;99.90
52869;DHT22;39100;53.480;6.158;2023-05-14T02:48:58;11.50;99.90
52869;DHT22;39100;53.480;6.158;2023-05-14T02:51:23;11.50;99.90
52869;DHT22;39100;53.480;6.158;2023-05-14T02:53:49;11.40;99.90
52869;DHT22;39100;53.480;6.158;2023-05-14T02:56:15;11.40;99.90
52869;DHT22;39100;53.480;6.158;2023-05-14T02:58:40;11.40;99.90
52869;DHT22;39100;53.480;6.158;2023-05-14T03:01:06;11.40;99.90
52869;DHT22;39100;53.480;6.158;2023-05-14T03:03:32;11.30;99.90
52869;DHT22;39100;53.480;6.158;2023-05-14T03:05:58;11.40;99.90
52869;DHT22;39100;53.480;6.158;2023-05-14T03:08:23;11.30;99.90
52869;DHT22;39100;53.480;6.158;2023-05-14T03:10:49;11.30;99.90
52869;DHT22;39100;53.480;6.158;2023-05-14T03:13:14;11.30;99.90
52869;DHT22;39100;53.480;6.158;2023-05-14T03:15:43;11.30;99.90
52869;DHT22;39100;53.480;6.158;2023-05-14T03:18:08;11.30;99.90
52869;DHT22;39100;53.480;6.158;2023-05-14T03:20:34;11.30;99.90
52869;DHT22;39100;53.480;6.158;2023-05-14T03:23:00;11.30;99.90
52869;DHT22;39100;53.480;6.158;2023-05-14T03:25:25;11.30;99.90
52869;DHT22;39100;53.480;6.158;2023-05-14T03:27:51;11.30;99.90
52869;DHT22;39100;53.480;6.158;2023-05-14T03:30:16;11.30;99.90
52869;DHT22;39100;53.480;6.158;2023-05-14T03:32:42;11.70;99.90
52869;DHT22;39100;53.480;6.158;2023-05-14T03:35:08;11.30;99.90
52869;DHT22;39100;53.480;6.158;2023-05-14T03:37:33;11.30;99.90
52869;DHT22;39100;53.480;6.158;2023-05-14T03:39:59;11.30;99.90
52869;DHT22;39100;53.480;6.158;2023-05-14T03:42:25;11.30;99.90
52869;DHT22;39100;53.480;6.158;2023-05-14T03:44:51;11.30;99.90
52869;DHT22;39100;53.480;6.158;2023-05-14T03:47:17;11.30;99.90
52869;DHT22;39100;53.480;6.158;2023-05-14T03:49:42;11.30;99.90
52869;DHT22;39100;53.480;6.158;2023-05-14T03:52:08;11.30;99.90
52869;DHT22;39100;53.480;6.158;2023-05-14T03:54:33;11.40;99.90
52869;DHT22;39100;53.480;6.158;2023-05-14T03:56:59;11.40;99.90
52869;DHT22;39100;53.480;6.158;2023-05-14T03:59:26;11.40;99.90
52869;DHT22;39100;53.480;6.158;2023-05-14T04:01:51;11.60;99.90
52869;DHT22;39100;53.480;6.158;2023-05-14T04:04:17;11.40;99.90
52869;DHT22;39100;53.480;6.158;2023-05-14T04:06:42;11.40;99.90
52869;DHT22;39100;53.480;6.158;2023-05-14T04:09:08;11.40;99.90
52869;DHT22;39100;53.480;6.158;2023-05-14T04:11:35;11.40;99.90
52869;DHT22;39100;53.480;6.158;2023-05-14T04:14:01;11.50;99.90
52869;DHT22;39100;53.480;6.158;2023-05-14T04:16:26;11.50;99.90
52869;DHT22;39100;53.480;6.158;2023-05-14T04:18:52;11.40;99.90
52869;DHT22;39100;53.480;6.158;2023-05-14T04:21:17;11.40;99.90
52869;DHT22;39100;53.480;6.158;2023-05-14T04:23:43;11.60;99.90
52869;DHT22;39100;53.480;6.158;2023-05-14T04:26:08;11.40;99.90
52869;DHT22;39100;53.480;6.158;2023-05-14T04:28:34;11.40;99.90
52869;DHT22;39100;53.480;6.158;2023-05-14T04:30:59;11.40;99.90
52869;DHT22;39100;53.480;6.158;2023-05-14T04:33:25;11.40;99.90
52869;DHT22;39100;53.480;6.158;2023-05-14T04:35:51;11.40;99.90
52869;DHT22;39100;53.480;6.158;2023-05-14T04:38:17;11.40;99.90
52869;DHT22;39100;53.480;6.158;2023-05-14T04:40:43;11.40;99.90
52869;DHT22;39100;53.480;6.158;2023-05-14T04:43:08;11.40;99.90
52869;DHT22;39100;53.480;6.158;2023-05-14T04:45:35;11.50;99.90
52869;DHT22;39100;53.480;6.158;2023-05-14T04:48:02;11.50;99.90
52869;DHT22;39100;53.480;6.158;2023-05-14T04:50:28;11.50;99.90
52869;DHT22;39100;53.480;6.158;2023-05-14T04:52:53;11.60;99.90
52869;DHT22;39100;53.480;6.158;2023-05-14T04:55:20;11.50;99.90
52869;DHT22;39100;53.480;6.158;2023-05-14T04:57:46;11.50;99.90
52869;DHT22;39100;53.480;6.158;2023-05-14T05:00:12;11.50;99.90
52869;DHT22;39100;53.480;6.158;2023-05-14T05:02:37;11.50;99.90
52869;DHT22;39100;53.480;6.158;2023-05-14T05:05:03;11.50;99.90
52869;DHT22;39100;53.480;6.158;2023-05-14T05:07:29;11.60;99.90
52869;DHT22;39100;53.480;6.158;2023-05-14T05:09:54;11.50;99.90
52869;DHT22;39100;53.480;6.158;2023-05-14T05:12:20;11.60;99.90
52869;DHT22;39100;53.480;6.158;2023-05-14T05:14:45;11.60;99.90
52869;DHT22;39100;53.480;6.158;2023-05-14T05:17:11;11.60;99.90
52869;DHT22;39100;53.480;6.158;2023-05-14T05:19:37;11.60;99.90
52869;DHT22;39100;53.480;6.158;2023-05-14T05:22:03;11.70;99.90
52869;DHT22;39100;53.480;6.158;2023-05-14T05:24:29;11.70;99.90
52869;DHT22;39100;53.480;6.158;2023-05-14T05:26:54;11.70;99.90
52869;DHT22;39100;53.480;6.158;2023-05-14T05:29:21;11.70;99.90
52869;DHT22;39100;53.480;6.158;2023-05-14T05:31:47;11.80;99.90
52869;DHT22;39100;53.480;6.158;2023-05-14T05:34:13;11.80;99.90
52869;DHT22;39100;53.480;6.158;2023-05-14T05:36:39;11.90;99.90
52869;DHT22;39100;53.480;6.158;2023-05-14T05:39:05;11.90;99.90
52869;DHT22;39100;53.480;6.158;2023-05-14T05:41:30;12.00;99.90
52869;DHT22;39100;53.480;6.158;2023-05-14T05:43:56;12.30;99.90
52869;DHT22;39100;53.480;6.158;2023-05-14T05:46:21;12.10;99.90
52869;DHT22;39100;53.480;6.158;2023-05-14T05:48:47;12.20;99.90
52869;DHT22;39100;53.480;6.158;2023-05-14T05:51:12;12.20;99.90
52869;DHT22;39100;53.480;6.158;2023-05-14T05:53:38;12.20;99.90
52869;DHT22;39100;53.480;6.158;2023-05-14T05:56:04;12.30;99.90
52869;DHT22;39100;53.480;6.158;2023-05-14T05:58:30;12.20;99.90
52869;DHT22;39100;53.480;6.158;2023-05-14T06:00:56;12.30;99.90
52869;DHT22;39100;53.480;6.158;2023-05-14T06:03:22;12.30;99.90
52869;DHT22;39100;53.480;6.158;2023-05-14T06:05:48;12.30;99.90
52869;DHT22;39100;53.480;6.158;2023-05-14T06:08:13;12.40;99.90
52869;DHT22;39100;53.480;6.158;2023-05-14T06:10:39;12.40;99.90
52869;DHT22;39100;53.480;6.158;2023-05-14T06:13:04;12.50;99.90
52869;DHT22;39100;53.480;6.158;2023-05-14T06:15:31;12.50;99.90
52869;DHT22;39100;53.480;6.158;2023-05-14T06:17:56;12.70;99.90
52869;DHT22;39100;53.480;6.158;2023-05-14T06:20:22;12.60;99.90
52869;DHT22;39100;53.480;6.158;2023-05-14T06:22:48;12.60;99.90
52869;DHT22;39100;53.480;6.158;2023-05-14T06:25:13;12.60;99.90
52869;DHT22;39100;53.480;6.158;2023-05-14T06:27:39;12.60;99.90
52869;DHT22;39100;53.480;6.158;2023-05-14T06:30:05;12.60;99.90
52869;DHT22;39100;53.480;6.158;2023-05-14T06:32:31;12.70;99.90
52869;DHT22;39100;53.480;6.158;2023-05-14T06:34:57;12.80;99.90
52869;DHT22;39100;53.480;6.158;2023-05-14T06:37:22;12.90;99.90
52869;DHT22;39100;53.480;6.158;2023-05-14T06:39:48;12.80;99.90
52869;DHT22;39100;53.480;6.158;2023-05-14T06:42:16;12.90;99.90
52869;DHT22;39100;53.480;6.158;2023-05-14T06:44:42;13.30;99.90
52869;DHT22;39100;53.480;6.158;2023-05-14T06:47:08;13.00;99.90
52869;DHT22;39100;53.480;6.158;2023-05-14T06:49:34;13.60;99.90
52869;DHT22;39100;53.480;6.158;2023-05-14T06:51:59;13.10;99.90
52869;DHT22;39100;53.480;6.158;2023-05-14T06:54:25;13.20;99.90
52869;DHT22;39100;53.480;6.158;2023-05-14T06:56:51;13.30;99.90
52869;DHT22;39100;53.480;6.158;2023-05-14T06:59:16;13.50;99.90
52869;DHT22;39100;53.480;6.158;2023-05-14T07:01:42;13.60;99.90
52869;DHT22;39100;53.480;6.158;2023-05-14T07:04:07;13.80;99.90
52869;DHT22;39100;53.480;6.158;2023-05-14T07:06:33;14.00;99.90
52869;DHT22;39100;53.480;6.158;2023-05-14T07:09:00;14.10;99.90
52869;DHT22;39100;53.480;6.158;2023-05-14T07:11:25;14.20;99.90
52869;DHT22;39100;53.480;6.158;2023-05-14T07:13:51;14.20;99.90
52869;DHT22;39100;53.480;6.158;2023-05-14T07:16:17;14.10;99.90
52869;DHT22;39100;53.480;6.158;2023-05-14T07:18:43;14.10;99.90
52869;DHT22;39100;53.480;6.158;2023-05-14T07:21:09;14.10;99.90
52869;DHT22;39100;53.480;6.158;2023-05-14T07:23:35;14.20;99.90
52869;DHT22;39100;53.480;6.158;2023-05-14T07:26:06;14.10;99.90
52869;DHT22;39100;53.480;6.158;2023-05-14T07:28:32;14.10;99.90
52869;DHT22;39100;53.480;6.158;2023-05-14T07:30:58;14.20;99.90
52869;DHT22;39100;53.480;6.158;2023-05-14T07:33:24;14.20;99.90
52869;DHT22;39100;53.480;6.158;2023-05-14T07:35:50;14.20;99.90
52869;DHT22;39100;53.480;6.158;2023-05-14T07:38:16;14.20;99.90
52869;DHT22;39100;53.480;6.158;2023-05-14T07:40:42;14.20;99.90
52869;DHT22;39100;53.480;6.158;2023-05-14T07:43:08;14.20;99.90
52869;DHT22;39100;53.480;6.158;2023-05-14T07:45:35;14.30;99.90
52869;DHT22;39100;53.480;6.158;2023-05-14T07:48:01;14.40;99.90
52869;DHT22;39100;53.480;6.158;2023-05-14T07:50:27;14.50;99.90
52869;DHT22;39100;53.480;6.158;2023-05-14T07:52:52;14.70;99.90
52869;DHT22;39100;53.480;6.158;2023-05-14T07:55:18;14.80;99.90
52869;DHT22;39100;53.480;6.158;2023-05-14T07:57:43;14.90;99.90
52869;DHT22;39100;53.480;6.158;2023-05-14T08:00:10;15.10;99.90
52869;DHT22;39100;53.480;6.158;2023-05-14T08:02:36;15.40;99.90
52869;DHT22;39100;53.480;6.158;2023-05-14T08:05:02;15.50;99.90
52869;DHT22;39100;53.480;6.158;2023-05-14T08:07:29;15.70;99.90
52869;DHT22;39100;53.480;6.158;2023-05-14T08:09:54;15.90;99.90
52869;DHT22;39100;53.480;6.158;2023-05-14T08:12:20;16.00;99.90
52869;DHT22;39100;53.480;6.158;2023-05-14T08:14:46;16.10;99.90
52869;DHT22;39100;53.480;6.158;2023-05-14T08:17:11;16.30;99.90
52869;DHT22;39100;53.480;6.158;2023-05-14T08:19:37;16.40;99.90
52869;DHT22;39100;53.480;6.158;2023-05-14T08:22:03;16.50;99.90
52869;DHT22;39100;53.480;6.158;2023-05-14T08:24:28;16.70;99.90
52869;DHT22;39100;53.480;6.158;2023-05-14T08:26:54;17.80;99.90
52869;DHT22;39100;53.480;6.158;2023-05-14T08:29:20;16.90;99.90
52869;DHT22;39100;53.480;6.158;2023-05-14T08:31:46;18.00;99.90
52869;DHT22;39100;53.480;6.158;2023-05-14T08:34:11;17.30;99.90
52869;DHT22;39100;53.480;6.158;2023-05-14T08:36:37;17.60;99.90
52869;DHT22;39100;53.480;6.158;2023-05-14T08:39:03;17.80;99.90
52869;DHT22;39100;53.480;6.158;2023-05-14T08:41:29;18.00;99.90
52869;DHT22;39100;53.480;6.158;2023-05-14T08:44:11;18.30;99.90
52869;DHT22;39100;53.480;6.158;2023-05-14T08:46:37;18.40;99.90
52869;DHT22;39100;53.480;6.158;2023-05-14T08:52:17;18.80;99.90
52869;DHT22;39100;53.480;6.158;2023-05-14T08:54:45;18.60;99.90
52869;DHT22;39100;53.480;6.158;2023-05-14T08:57:11;18.60;99.90
52869;DHT22;39100;53.480;6.158;2023-05-14T08:59:37;18.70;99.90
52869;DHT22;39100;53.480;6.158;2023-05-14T09:02:04;19.00;99.90
52869;DHT22;39100;53.480;6.158;2023-05-14T09:04:31;19.20;99.90
52869;DHT22;39100;53.480;6.158;2023-05-14T09:06:59;19.30;99.90
52869;DHT22;39100;53.480;6.158;2023-05-14T09:09:26;19.40;99.90
52869;DHT22;39100;53.480;6.158;2023-05-14T09:11:52;19.60;99.90
52869;DHT22;39100;53.480;6.158;2023-05-14T09:14:19;19.60;99.90
52869;DHT22;39100;53.480;6.158;2023-05-14T09:16:46;19.70;99.90
52869;DHT22;39100;53.480;6.158;2023-05-14T09:19:13;19.80;99.90
52869;DHT22;39100;53.480;6.158;2023-05-14T09:21:39;20.00;99.90
52869;DHT22;39100;53.480;6.158;2023-05-14T09:24:05;20.00;99.90
52869;DHT22;39100;53.480;6.158;2023-05-14T09:26:32;20.10;99.90
52869;DHT22;39100;53.480;6.158;2023-05-14T09:28:58;20.30;99.90
52869;DHT22;39100;53.480;6.158;2023-05-14T09:31:31;20.50;99.90
52869;DHT22;39100;53.480;6.158;2023-05-14T09:33:58;20.60;99.90
52869;DHT22;39100;53.480;6.158;2023-05-14T09:36:24;20.70;99.90
52869;DHT22;39100;53.480;6.158;2023-05-14T09:38:52;20.50;99.90
52869;DHT22;39100;53.480;6.158;2023-05-14T09:41:17;20.20;99.90
52869;DHT22;39100;53.480;6.158;2023-05-14T09:43:43;20.10;99.90
52869;DHT22;39100;53.480;6.158;2023-05-14T09:46:09;19.80;99.90
52869;DHT22;39100;53.480;6.158;2023-05-14T09:48:34;19.80;99.90
52869;DHT22;39100;53.480;6.158;2023-05-14T09:51:00;19.90;99.90
52869;DHT22;39100;53.480;6.158;2023-05-14T09:53:26;19.90;99.90
52869;DHT22;39100;53.480;6.158;2023-05-14T09:55:52;19.80;99.90
52869;DHT22;39100;53.480;6.158;2023-05-14T09:58:18;20.10;99.90
52869;DHT22;39100;53.480;6.158;2023-05-14T10:00:45;19.80;99.90
52869;DHT22;39100;53.480;6.158;2023-05-14T10:03:13;19.80;99.90
52869;DHT22;39100;53.480;6.158;2023-05-14T10:05:40;19.90;99.90
52869;DHT22;39100;53.480;6.158;2023-05-14T10:08:29;20.00;99.90
52869;DHT22;39100;53.480;6.158;2023-05-14T10:10:58;20.30;99.90
52869;DHT22;39100;53.480;6.158;2023-05-14T10:13:32;20.50;99.90
52869;DHT22;39100;53.480;6.158;2023-05-14T10:16:08;20.50;99.90
52869;DHT22;39100;53.480;6.158;2023-05-14T10:18:40;20.40;99.90
52869;DHT22;39100;53.480;6.158;2023-05-14T10:21:07;20.30;99.90
52869;DHT22;39100;53.480;6.158;2023-05-14T10:23:33;20.30;99.90
52869;DHT22;39100;53.480;6.158;2023-05-14T10:26:02;20.70;99.90
52869;DHT22;39100;53.480;6.158;2023-05-14T10:28:28;20.40;99.90
52869;DHT22;39100;53.480;6.158;2023-05-14T10:30:55;20.40;99.90
52869;DHT22;39100;53.480;6.158;2023-05-14T10:33:20;21.00;99.90
52869;DHT22;39100;53.480;6.158;2023-05-14T10:38:24;20.40;99.90
52869;DHT22;39100;53.480;6.158;2023-05-14T10:40:54;20.40;99.90
52869;DHT22;39100;53.480;6.158;2023-05-14T10:43:20;20.40;99.90
52869;DHT22;39100;53.480;6.158;2023-05-14T10:45:46;20.50;99.90
52869;DHT22;39100;53.480;6.158;2023-05-14T10:48:12;20.60;99.90
52869;DHT22;39100;53.480;6.158;2023-05-14T10:50:38;20.60;99.90
52869;DHT22;39100;53.480;6.158;2023-05-14T10:53:04;20.60;99.90
52869;DHT22;39100;53.480;6.158;2023-05-14T10:55:30;20.60;99.90
52869;DHT22;39100;53.480;6.158;2023-05-14T10:57:57;20.70;99.90
52869;DHT22;39100;53.480;6.158;2023-05-14T11:00:24;20.60;99.90
52869;DHT22;39100;53.480;6.158;2023-05-14T11:02:54;20.70;99.90
52869;DHT22;39100;53.480;6.158;2023-05-14T11:05:21;20.80;99.90
52869;DHT22;39100;53.480;6.158;2023-05-14T11:07:48;21.10;99.90
52869;DHT22;39100;53.480;6.158;2023-05-14T11:10:19;21.10;99.90
52869;DHT22;39100;53.480;6.158;2023-05-14T11:12:46;21.40;99.90
52869;DHT22;39100;53.480;6.158;2023-05-14T11:15:17;21.50;99.90
52869;DHT22;39100;53.480;6.158;2023-05-14T11:17:44;21.70;99.90
52869;DHT22;39100;53.480;6.158;2023-05-14T11:20:11;21.90;99.90
52869;DHT22;39100;53.480;6.158;2023-05-14T11:22:38;22.00;99.90
52869;DHT22;39100;53.480;6.158;2023-05-14T11:25:04;22.00;99.90
52869;DHT22;39100;53.480;6.158;2023-05-14T11:27:33;22.10;99.90
52869;DHT22;39100;53.480;6.158;2023-05-14T11:29:59;22.00;99.90
52869;DHT22;39100;53.480;6.158;2023-05-14T11:32:25;21.80;99.90
52869;DHT22;39100;53.480;6.158;2023-05-14T11:34:51;21.70;99.90
52869;DHT22;39100;53.480;6.158;2023-05-14T11:37:16;21.40;99.90
52869;DHT22;39100;53.480;6.158;2023-05-14T11:39:53;21.30;99.90
52869;DHT22;39100;53.480;6.158;2023-05-14T11:42:20;21.00;99.90
52869;DHT22;39100;53.480;6.158;2023-05-14T11:44:47;21.00;99.90
52869;DHT22;39100;53.480;6.158;2023-05-14T11:47:14;21.20;99.90
52869;DHT22;39100;53.480;6.158;2023-05-14T11:49:40;21.40;99.90
52869;DHT22;39100;53.480;6.158;2023-05-14T11:52:07;21.60;99.90
52869;DHT22;39100;53.480;6.158;2023-05-14T11:54:34;21.80;99.90
52869;DHT22;39100;53.480;6.158;2023-05-14T11:57:11;21.90;99.90
52869;DHT22;39100;53.480;6.158;2023-05-14T11:59:37;22.00;99.90
52869;DHT22;39100;53.480;6.158;2023-05-14T12:02:04;22.30;99.90
52869;DHT22;39100;53.480;6.158;2023-05-14T12:04:32;22.50;99.90
52869;DHT22;39100;53.480;6.158;2023-05-14T12:06:59;22.80;99.90
52869;DHT22;39100;53.480;6.158;2023-05-14T12:09:35;22.90;99.90
52869;DHT22;39100;53.480;6.158;2023-05-14T12:12:07;22.90;99.90
52869;DHT22;39100;53.480;6.158;2023-05-14T12:14:40;22.80;99.90
52869;DHT22;39100;53.480;6.158;2023-05-14T12:17:17;22.90;99.90
52869;DHT22;39100;53.480;6.158;2023-05-14T12:19:45;22.80;99.90
52869;DHT22;39100;53.480;6.158;2023-05-14T12:22:14;22.90;99.90
52869;DHT22;39100;53.480;6.158;2023-05-14T12:24:40;23.10;99.90
52869;DHT22;39100;53.480;6.158;2023-05-14T12:27:08;23.20;99.90
52869;DHT22;39100;53.480;6.158;2023-05-14T12:29:37;23.30;99.90
52869;DHT22;39100;53.480;6.158;2023-05-14T12:32:07;23.20;99.90
52869;DHT22;39100;53.480;6.158;2023-05-14T12:34:37;23.00;99.90
52869;DHT22;39100;53.480;6.158;2023-05-14T12:37:04;22.90;99.90
52869;DHT22;39100;53.480;6.158;2023-05-14T12:39:32;22.70;99.90
52869;DHT22;39100;53.480;6.158;2023-05-14T12:41:58;22.60;99.90
52869;DHT22;39100;53.480;6.158;2023-05-14T12:44:23;22.60;99.90
52869;DHT22;39100;53.480;6.158;2023-05-14T12:46:49;22.40;99.90
52869;DHT22;39100;53.480;6.158;2023-05-14T12:49:14;22.20;99.90
52869;DHT22;39100;53.480;6.158;2023-05-14T12:51:40;22.00;99.90
52869;DHT22;39100;53.480;6.158;2023-05-14T12:54:05;21.80;99.90
52869;DHT22;39100;53.480;6.158;2023-05-14T12:56:31;21.60;99.90
52869;DHT22;39100;53.480;6.158;2023-05-14T12:58:57;21.40;99.90
52869;DHT22;39100;53.480;6.158;2023-05-14T13:01:22;21.40;99.90
52869;DHT22;39100;53.480;6.158;2023-05-14T13:03:48;21.20;99.90
52869;DHT22;39100;53.480;6.158;2023-05-14T13:06:14;21.00;99.90
52869;DHT22;39100;53.480;6.158;2023-05-14T13:08:40;20.90;99.90
52869;DHT22;39100;53.480;6.158;2023-05-14T13:11:06;20.70;99.90
52869;DHT22;39100;53.480;6.158;2023-05-14T13:13:32;20.60;99.90
52869;DHT22;39100;53.480;6.158;2023-05-14T13:15:58;20.60;99.90
52869;DHT22;39100;53.480;6.158;2023-05-14T13:18:23;20.50;99.90
52869;DHT22;39100;53.480;6.158;2023-05-14T13:20:51;20.50;99.90
52869;DHT22;39100;53.480;6.158;2023-05-14T13:23:17;20.50;99.90
52869;DHT22;39100;53.480;6.158;2023-05-14T13:25:42;20.50;99.90
52869;DHT22;39100;53.480;6.158;2023-05-14T13:28:08;20.60;99.90
52869;DHT22;39100;53.480;6.158;2023-05-14T13:30:33;20.30;99.90
52869;DHT22;39100;53.480;6.158;2023-05-14T13:32:59;20.20;99.90
52869;DHT22;39100;53.480;6.158;2023-05-14T13:35:24;20.10;99.90
52869;DHT22;39100;53.480;6.158;2023-05-14T13:37:50;20.10;99.90
52869;DHT22;39100;53.480;6.158;2023-05-14T13:40:16;20.00;99.90
52869;DHT22;39100;53.480;6.158;2023-05-14T13:42:41;20.10;99.90
52869;DHT22;39100;53.480;6.158;2023-05-14T13:45:07;20.20;99.90
52869;DHT22;39100;53.480;6.158;2023-05-14T13:47:33;20.10;99.90
52869;DHT22;39100;53.480;6.158;2023-05-14T13:49:59;20.10;99.90
52869;DHT22;39100;53.480;6.158;2023-05-14T13:52:25;20.20;99.90
52869;DHT22;39100;53.480;6.158;2023-05-14T13:54:51;20.20;99.90
52869;DHT22;39100;53.480;6.158;2023-05-14T13:57:17;20.20;99.90
52869;DHT22;39100;53.480;6.158;2023-05-14T13:59:45;20.20;99.90
52869;DHT22;39100;53.480;6.158;2023-05-14T14:02:10;20.20;99.90
52869;DHT22;39100;53.480;6.158;2023-05-14T14:04:36;20.10;99.90
52869;DHT22;39100;53.480;6.158;2023-05-14T14:07:02;20.10;99.90
52869;DHT22;39100;53.480;6.158;2023-05-14T14:09:27;20.00;99.90
52869;DHT22;39100;53.480;6.158;2023-05-14T14:11:53;19.90;99.90
52869;DHT22;39100;53.480;6.158;2023-05-14T14:14:19;19.70;99.90
52869;DHT22;39100;53.480;6.158;2023-05-14T14:16:44;19.50;99.90
52869;DHT22;39100;53.480;6.158;2023-05-14T14:19:10;19.60;99.90
52869;DHT22;39100;53.480;6.158;2023-05-14T14:21:36;19.30;99.90
52869;DHT22;39100;53.480;6.158;2023-05-14T14:24:04;19.30;99.90
52869;DHT22;39100;53.480;6.158;2023-05-14T14:26:30;19.30;99.90
52869;DHT22;39100;53.480;6.158;2023-05-14T14:28:56;19.70;99.90
52869;DHT22;39100;53.480;6.158;2023-05-14T14:31:21;19.30;99.90
52869;DHT22;39100;53.480;6.158;2023-05-14T14:33:47;19.30;99.90
52869;DHT22;39100;53.480;6.158;2023-05-14T14:36:12;19.20;99.90
52869;DHT22;39100;53.480;6.158;2023-05-14T14:38:38;19.10;99.90
52869;DHT22;39100;53.480;6.158;2023-05-14T14:41:04;19.00;99.90
52869;DHT22;39100;53.480;6.158;2023-05-14T14:43:32;19.00;99.90
52869;DHT22;39100;53.480;6.158;2023-05-14T14:45:58;19.40;99.90
52869;DHT22;39100;53.480;6.158;2023-05-14T14:48:34;19.00;99.90
52869;DHT22;39100;53.480;6.158;2023-05-14T14:51:04;19.10;99.90
52869;DHT22;39100;53.480;6.158;2023-05-14T14:53:30;19.00;99.90
52869;DHT22;39100;53.480;6.158;2023-05-14T14:55:56;18.80;99.90
52869;DHT22;39100;53.480;6.158;2023-05-14T14:58:23;18.50;99.90
52869;DHT22;39100;53.480;6.158;2023-05-14T15:00:55;18.20;99.90
52869;DHT22;39100;53.480;6.158;2023-05-14T15:03:22;18.00;99.90
52869;DHT22;39100;53.480;6.158;2023-05-14T15:05:48;17.80;99.90
52869;DHT22;39100;53.480;6.158;2023-05-14T15:08:14;17.60;99.90
52869;DHT22;39100;53.480;6.158;2023-05-14T15:10:40;17.50;99.90
52869;DHT22;39100;53.480;6.158;2023-05-14T15:13:07;17.30;99.90
52869;DHT22;39100;53.480;6.158;2023-05-14T15:15:33;17.20;99.90
52869;DHT22;39100;53.480;6.158;2023-05-14T15:17:59;17.20;99.90
52869;DHT22;39100;53.480;6.158;2023-05-14T15:20:25;17.10;99.90
52869;DHT22;39100;53.480;6.158;2023-05-14T15:22:50;17.00;99.90
52869;DHT22;39100;53.480;6.158;2023-05-14T15:25:18;17.00;99.90
52869;DHT22;39100;53.480;6.158;2023-05-14T15:27:44;16.90;99.90
52869;DHT22;39100;53.480;6.158;2023-05-14T15:30:10;17.00;99.90
52869;DHT22;39100;53.480;6.158;2023-05-14T15:32:35;16.90;99.90